Redwood City, CA

4:57 PM PST on December 07, 2016 (GMT -0800)
Redwood Shores | | Change Station

Elev 5 ft 37.53 °N, 122.25 °W | Updated 0 second ago

Overcast
Overcast
50.4 °F
Feels Like 50.4 °F
N
0.0
Wind Variable Wind from SE
Gusts 0.0 mph

Today
High -- | Low -- °F
--% Chance of Precip.
Yesterday
High -- | Low -- °F
Precip. -- in
Pressure 30.14 in
Visibility 10.0 miles
Clouds Mostly Cloudy 5000 ft
Overcast 8000 ft
Dew Point 39 °F
Humidity 64%
Rainfall 0.00 in
Snow Depth Not available.
7:10 AM 4:50 PM
First Quarter, 57% visible
METAR KSQL 072355Z 00000KT 10SM BKN050 OVC080 10/03 A3014
Pressure 30.14 in
Visibility 10.0 miles
Clouds Mostly Cloudy 5000 ft
Overcast 8000 ft
Dew Point 39 °F
Humidity 64%
Rainfall 0.00 in
Snow Depth Not available.
7:10 AM 4:50 PM
First Quarter, 57% visible
METAR KSQL 072355Z 00000KT 10SM BKN050 OVC080 10/03 A3014

10-Day Weather Forecast

Almanac

Astronomy

Dec. 07, 2016 Rise Set
Actual Time
Civil Twilight
Nautical Twilight
Astronomical Twilight
Moon
Length of Visible Light
Length of Day
Tomorrow will be .
, % of the Moon is Illuminated

Today's Extremes

State Highs State Lows

Community

WunderPhotos

Upload Photos

1,956,237 photos uploaded!

WunderBlog® & News

Nearby

Air Quality

  Air Quality AQ Index Pollutant
Not available.

Snow Depth

Station Depth Elevation

Earthquake Activity

City Distance Mag. Time & Date
Minimum magnitude displayed is 2.5.

Coastal Water Temperatures

Place Temperature

Stations

Nearby Weather Stations

Station Location Temp. Windchill Dew Point Humidity Wind Precip. Elev Updated Type
                   

Watches & Warnings

There are currently no watches in effect.